createdAt,value
2023-01-11T00:02:16.874Z,3.53
2023-01-11T00:04:45.251Z,2.15
2023-01-11T00:07:12.417Z,2.05
2023-01-11T00:09:38.997Z,4.78
2023-01-11T00:12:05.597Z,4.70
2023-01-11T00:14:33.093Z,3.42
2023-01-11T00:17:00.206Z,3.33
2023-01-11T00:19:27.206Z,2.13
2023-01-11T00:21:54.214Z,6.78
2023-01-11T00:24:21.506Z,2.45
2023-01-11T00:26:48.495Z,2.42
2023-01-11T00:29:15.572Z,2.50
2023-01-11T00:31:42.584Z,3.78
2023-01-11T00:34:09.613Z,2.75
2023-01-11T00:36:36.623Z,4.07
2023-01-11T00:39:03.813Z,3.90
2023-01-11T00:41:49.177Z,2.50
2023-01-11T00:44:34.326Z,4.43
2023-01-11T00:47:19.275Z,6.60
2023-01-11T00:49:46.460Z,2.20
2023-01-11T00:52:13.085Z,3.70
2023-01-11T00:54:41.519Z,3.20
2023-01-11T00:57:08.513Z,2.25
2023-01-11T00:59:37.403Z,1.70
2023-01-11T01:02:04.709Z,2.15
2023-01-11T01:04:31.459Z,2.08
2023-01-11T01:06:58.199Z,2.13
2023-01-11T01:09:25.272Z,1.00
2023-01-11T01:11:51.824Z,2.55
2023-01-11T01:14:28.677Z,2.95
2023-01-11T01:17:08.834Z,2.28
2023-01-11T01:19:38.647Z,1.02
2023-01-11T01:22:05.699Z,2.15
2023-01-11T01:24:33.269Z,2.85
2023-01-11T01:27:00.504Z,1.98
2023-01-11T01:29:27.582Z,0.60
2023-01-11T01:31:54.388Z,1.55
2023-01-11T01:34:21.378Z,0.70
2023-01-11T01:36:48.450Z,1.60
2023-01-11T01:39:15.568Z,2.58
2023-01-11T01:41:42.800Z,1.45
2023-01-11T01:44:47.059Z,1.80
2023-01-11T01:47:14.902Z,2.22
2023-01-11T01:49:44.515Z,4.78
2023-01-11T01:52:12.415Z,2.53
2023-01-11T01:54:45.055Z,1.55
2023-01-11T01:57:21.348Z,1.15
2023-01-11T01:59:51.908Z,0.82
2023-01-11T02:02:22.001Z,0.73
2023-01-11T02:04:49.418Z,0.50
2023-01-11T02:07:18.078Z,1.35
2023-01-11T02:09:55.671Z,1.42
2023-01-11T02:12:24.853Z,0.60
2023-01-11T02:14:54.566Z,1.10
2023-01-11T02:17:21.743Z,0.60
2023-01-11T02:20:10.770Z,0.50
2023-01-11T02:23:07.568Z,0.60
2023-01-11T02:25:41.920Z,0.40
2023-01-11T02:28:15.537Z,1.48
2023-01-11T02:31:13.415Z,1.80
2023-01-11T02:33:50.843Z,0.70
2023-01-11T02:36:36.147Z,0.85
2023-01-11T02:39:16.493Z,0.40
2023-01-11T02:42:15.263Z,3.00
2023-01-11T02:45:02.698Z,1.52
2023-01-11T02:47:47.771Z,0.70
2023-01-11T02:51:03.239Z,1.70
2023-01-11T02:53:37.621Z,2.13
2023-01-11T02:56:09.788Z,0.70
2023-01-11T02:58:39.767Z,1.05
2023-01-11T03:01:07.237Z,2.83
2023-01-11T03:03:34.180Z,2.15
2023-01-11T03:06:08.325Z,6.78
2023-01-11T03:09:12.744Z,2.53
2023-01-11T03:12:26.988Z,4.80
2023-01-11T03:15:04.186Z,3.30
2023-01-11T03:17:50.970Z,3.17
2023-01-11T03:20:17.650Z,4.72
2023-01-11T03:22:47.069Z,2.72
2023-01-11T03:25:17.071Z,2.95
2023-01-11T03:28:34.574Z,6.47
2023-01-11T03:31:07.276Z,3.33
2023-01-11T03:33:47.474Z,3.35
2023-01-11T03:36:29.292Z,5.40
2023-01-11T03:39:33.549Z,5.82
2023-01-11T03:42:01.994Z,5.43
2023-01-11T03:44:35.067Z,4.15
2023-01-11T03:47:06.991Z,14.60
2023-01-11T03:49:37.756Z,7.15
2023-01-11T03:52:08.879Z,7.97
2023-01-11T03:54:37.132Z,6.05
2023-01-11T03:57:08.937Z,16.60
2023-01-11T03:59:35.715Z,16.15
2023-01-11T04:02:02.528Z,14.25
2023-01-11T04:04:29.296Z,6.90
2023-01-11T04:06:56.958Z,9.38
2023-01-11T04:09:24.577Z,11.98
2023-01-11T04:11:51.348Z,12.75
2023-01-11T04:14:18.392Z,11.50
2023-01-11T04:16:45.014Z,15.23
2023-01-11T04:19:12.207Z,11.77
2023-01-11T04:21:38.921Z,15.15
2023-01-11T04:24:05.793Z,18.73
2023-01-11T04:26:32.904Z,16.27
2023-01-11T04:28:59.450Z,12.65
2023-01-11T04:31:26.554Z,10.30
2023-01-11T04:33:53.166Z,15.07
2023-01-11T04:36:20.204Z,14.93
2023-01-11T04:38:47.207Z,16.13
2023-01-11T04:41:32.442Z,16.52
2023-01-11T04:46:25.843Z,19.40
2023-01-11T04:48:52.579Z,16.63
2023-01-11T04:51:19.194Z,22.98
2023-01-11T04:53:48.556Z,16.38
2023-01-11T04:56:17.007Z,15.65
2023-01-11T04:58:44.409Z,21.10
2023-01-11T05:01:13.731Z,8.98
2023-01-11T05:03:40.459Z,12.50
2023-01-11T05:06:07.650Z,12.70
2023-01-11T05:08:35.385Z,20.60
2023-01-11T05:11:05.329Z,18.85
2023-01-11T05:13:45.124Z,16.48
2023-01-11T05:16:20.810Z,13.60
2023-01-11T05:18:49.784Z,17.27
2023-01-11T05:21:20.069Z,13.77
2023-01-11T05:23:47.383Z,15.38
2023-01-11T05:26:20.639Z,11.73
2023-01-11T05:28:47.476Z,13.60
2023-01-11T05:31:14.135Z,11.90
2023-01-11T05:33:41.288Z,15.10
2023-01-11T05:36:12.422Z,16.42
2023-01-11T05:38:39.560Z,16.88
2023-01-11T05:41:11.305Z,13.13
2023-01-11T05:43:58.530Z,17.90
2023-01-11T05:46:26.751Z,10.23
2023-01-11T05:48:55.155Z,11.13
2023-01-11T05:51:22.971Z,11.82
2023-01-11T05:53:50.547Z,18.13
2023-01-11T05:56:17.628Z,9.77
2023-01-11T05:58:48.783Z,9.00
2023-01-11T06:01:16.128Z,13.90
2023-01-11T06:03:43.245Z,12.70
2023-01-11T06:06:09.827Z,19.23
2023-01-11T06:08:37.026Z,8.38
2023-01-11T06:11:04.558Z,17.02
2023-01-11T06:13:31.441Z,10.35
2023-01-11T06:16:05.968Z,19.10
2023-01-11T06:18:35.519Z,24.38
2023-01-11T06:21:02.815Z,22.17
2023-01-11T06:23:31.315Z,17.92
2023-01-11T06:26:01.671Z,13.38
2023-01-11T06:28:28.512Z,15.43
2023-01-11T06:30:56.385Z,10.80
2023-01-11T06:33:25.263Z,13.70
2023-01-11T06:35:52.653Z,11.32
2023-01-11T06:38:21.216Z,20.65
2023-01-11T06:40:57.024Z,14.95
2023-01-11T06:43:24.534Z,21.02
2023-01-11T06:45:52.019Z,15.15
2023-01-11T06:48:19.700Z,20.33
2023-01-11T06:50:54.020Z,18.95
2023-01-11T06:53:21.595Z,14.18
2023-01-11T06:55:53.909Z,12.27
2023-01-11T06:58:23.481Z,14.95
2023-01-11T07:00:51.862Z,17.23
2023-01-11T07:03:20.512Z,15.20
2023-01-11T07:05:47.377Z,10.90
2023-01-11T07:08:13.965Z,16.08
2023-01-11T07:10:41.306Z,11.45
2023-01-11T07:13:08.786Z,13.23
2023-01-11T07:15:35.580Z,15.57
2023-01-11T07:18:03.346Z,15.75
2023-01-11T07:20:30.135Z,16.50
2023-01-11T07:23:01.707Z,11.25
2023-01-11T07:25:29.989Z,16.95
2023-01-11T07:28:09.088Z,12.73
2023-01-11T07:30:55.584Z,21.73
2023-01-11T07:33:24.581Z,10.50
2023-01-11T07:35:52.158Z,16.95
2023-01-11T07:38:19.707Z,11.02
2023-01-11T07:40:46.236Z,9.88
2023-01-11T07:43:19.034Z,13.35
2023-01-11T07:45:49.445Z,16.48
2023-01-11T07:48:20.998Z,8.80
2023-01-11T07:50:48.083Z,19.85
2023-01-11T07:53:14.891Z,16.85
2023-01-11T07:55:42.095Z,10.73
2023-01-11T07:58:11.681Z,10.27
2023-01-11T08:00:38.919Z,12.98
2023-01-11T08:03:05.608Z,15.95
2023-01-11T08:05:32.753Z,6.97
2023-01-11T08:07:59.282Z,14.52
2023-01-11T08:10:25.880Z,7.97
2023-01-11T08:13:11.203Z,12.73
2023-01-11T08:15:38.005Z,13.18
2023-01-11T08:18:05.975Z,28.98
2023-01-11T08:20:33.187Z,22.63
2023-01-11T08:23:07.056Z,14.55
2023-01-11T08:25:33.826Z,17.65
2023-01-11T08:28:02.169Z,20.58
2023-01-11T08:30:29.751Z,13.82
2023-01-11T08:32:57.526Z,13.23
2023-01-11T08:35:26.288Z,14.35
2023-01-11T08:37:53.439Z,14.13
2023-01-11T08:40:26.193Z,12.63
2023-01-11T08:42:57.288Z,13.98
2023-01-11T08:45:24.694Z,15.15
2023-01-11T08:47:52.336Z,21.02
2023-01-11T08:50:19.712Z,15.73
2023-01-11T08:52:47.444Z,22.63
2023-01-11T08:55:14.425Z,14.43
2023-01-11T08:57:40.979Z,19.55
2023-01-11T09:00:09.494Z,12.57
2023-01-11T09:02:36.212Z,17.25
2023-01-11T09:05:03.129Z,15.57
2023-01-11T09:07:30.240Z,15.57
2023-01-11T09:09:56.854Z,19.15
2023-01-11T09:12:23.536Z,13.70
2023-01-11T09:14:50.569Z,17.58
2023-01-11T09:17:19.030Z,22.38
2023-01-11T09:19:46.569Z,18.77
2023-01-11T09:22:14.110Z,13.40
2023-01-11T09:24:41.213Z,14.65
2023-01-11T09:27:08.527Z,20.38
2023-01-11T09:29:37.313Z,14.35
2023-01-11T09:32:04.887Z,18.20
2023-01-11T09:34:31.736Z,20.00
2023-01-11T09:37:00.678Z,18.17
2023-01-11T09:39:28.974Z,26.08
2023-01-11T09:42:19.291Z,29.33
2023-01-11T09:44:51.750Z,14.43
2023-01-11T09:47:30.964Z,18.40
2023-01-11T09:50:03.001Z,14.98
2023-01-11T09:52:38.278Z,27.25
2023-01-11T09:55:06.499Z,18.25
2023-01-11T09:57:56.776Z,20.02
2023-01-11T10:00:35.748Z,11.07
2023-01-11T10:03:26.035Z,14.43
2023-01-11T10:05:59.527Z,25.15
2023-01-11T10:18:25.529Z,12.80
2023-01-11T10:18:31.138Z,25.77
2023-01-11T10:20:51.957Z,20.33
2023-01-11T10:23:29.838Z,22.75
2023-01-11T10:25:59.206Z,17.52
2023-01-11T10:28:43.304Z,18.65
2023-01-11T10:31:49.274Z,19.73
2023-01-11T10:34:50.003Z,15.32
2023-01-11T10:37:26.888Z,12.30
2023-01-11T10:40:30.436Z,14.70
2023-01-11T10:43:03.862Z,16.27
2023-01-11T10:45:55.953Z,15.45
2023-01-11T10:48:27.481Z,11.40
2023-01-11T10:51:07.971Z,22.90
2023-01-11T10:54:01.158Z,15.73
2023-01-11T10:56:42.849Z,10.73
2023-01-11T10:59:57.000Z,19.40
2023-01-11T11:02:43.837Z,15.60
2023-01-11T11:05:33.356Z,13.57
2023-01-11T11:08:14.810Z,22.75
2023-01-11T11:11:01.735Z,17.73
2023-01-11T11:13:42.541Z,23.67
2023-01-11T11:16:18.824Z,22.00
2023-01-11T11:18:45.530Z,18.90
2023-01-11T11:21:22.433Z,21.90
2023-01-11T11:23:55.395Z,16.08
2023-01-11T11:26:27.766Z,20.65
2023-01-11T11:29:29.150Z,25.25
2023-01-11T11:31:58.283Z,11.68
2023-01-11T11:34:28.031Z,15.98
2023-01-11T11:36:59.338Z,38.38
2023-01-11T11:39:29.604Z,17.02
2023-01-11T11:42:08.973Z,19.75
2023-01-11T11:44:35.770Z,23.55
2023-01-11T11:47:14.205Z,17.88
2023-01-11T11:49:42.179Z,23.42
2023-01-11T11:52:14.907Z,14.23
2023-01-11T11:54:49.493Z,22.85
2023-01-11T11:57:27.319Z,16.83
2023-01-11T12:00:05.555Z,10.63
2023-01-11T12:02:34.868Z,20.33
2023-01-11T12:05:07.487Z,22.25
2023-01-11T12:07:49.722Z,20.05
2023-01-11T12:10:23.902Z,18.30
2023-01-11T12:12:56.860Z,16.90
2023-01-11T12:15:27.392Z,14.45
2023-01-11T12:17:55.102Z,20.42
2023-01-11T12:20:32.736Z,14.82
2023-01-11T12:23:18.089Z,21.73
2023-01-11T12:26:06.473Z,14.40
2023-01-11T12:28:33.480Z,22.80
2023-01-11T12:31:38.552Z,13.23
2023-01-11T12:34:17.062Z,15.27
2023-01-11T12:36:58.061Z,23.25
2023-01-11T12:39:36.489Z,15.25
2023-01-11T12:42:40.377Z,12.20
2023-01-11T12:45:19.650Z,13.32
2023-01-11T12:48:00.166Z,15.75
2023-01-11T12:50:33.256Z,25.15
2023-01-11T12:53:32.102Z,19.50
2023-01-11T12:56:30.974Z,20.20
2023-01-11T12:59:13.544Z,17.10
2023-01-11T13:01:58.543Z,14.13
2023-01-11T13:04:46.468Z,13.60
2023-01-11T13:07:35.897Z,18.67
2023-01-11T13:10:05.416Z,15.23
2023-01-11T13:12:49.711Z,16.48
2023-01-11T13:15:28.614Z,15.98
2023-01-11T13:18:23.353Z,13.35
2023-01-11T13:21:03.268Z,15.00
2023-01-11T13:23:36.415Z,23.90
2023-01-11T13:26:29.671Z,17.67
2023-01-11T13:29:17.110Z,10.00
2023-01-11T13:31:46.907Z,25.10
2023-01-11T13:34:13.397Z,17.35
2023-01-11T13:36:45.615Z,19.92
2023-01-11T13:39:31.448Z,23.52
2023-01-11T13:42:08.852Z,14.68
2023-01-11T13:44:42.663Z,21.50
2023-01-11T13:47:35.314Z,12.15
2023-01-11T13:50:20.636Z,21.63
2023-01-11T13:52:56.820Z,20.77
2023-01-11T13:55:26.931Z,14.52
2023-01-11T13:58:17.184Z,19.23
2023-01-11T14:00:55.588Z,27.42
2023-01-11T14:03:31.111Z,17.30
2023-01-11T14:06:55.406Z,11.63
2023-01-11T14:10:00.174Z,17.40
2023-01-11T14:12:45.504Z,12.18
2023-01-11T14:15:32.548Z,17.75
2023-01-11T14:18:09.287Z,19.38
2023-01-11T14:20:36.520Z,17.02
2023-01-11T14:23:14.204Z,17.08
2023-01-11T14:25:46.599Z,22.25
2023-01-11T14:28:44.981Z,18.35
2023-01-11T14:31:26.722Z,15.25
2023-01-11T14:34:19.603Z,20.02
2023-01-11T14:36:57.101Z,14.93
2023-01-11T14:39:42.323Z,20.70
2023-01-11T14:42:09.433Z,13.60
2023-01-11T14:44:54.159Z,17.63
2023-01-11T14:47:44.503Z,11.85
2023-01-11T14:50:33.187Z,17.23
2023-01-11T14:53:03.414Z,16.38
2023-01-11T14:55:35.013Z,25.85
2023-01-11T14:58:05.393Z,20.23
2023-01-11T15:00:31.864Z,10.27
2023-01-11T15:03:01.400Z,14.13
2023-01-11T15:05:33.857Z,14.70
2023-01-11T15:08:15.724Z,21.63
2023-01-11T15:11:02.255Z,18.50
2023-01-11T15:13:37.176Z,22.77
2023-01-11T15:16:28.822Z,14.45
2023-01-11T15:18:56.058Z,17.15
2023-01-11T15:21:26.596Z,14.70
2023-01-11T15:23:59.107Z,15.48
2023-01-11T15:26:27.296Z,17.42
2023-01-11T15:29:00.231Z,16.52
2023-01-11T15:31:45.471Z,10.32
2023-01-11T15:34:37.012Z,17.80
2023-01-11T15:37:03.955Z,12.30
2023-01-11T15:39:56.789Z,22.20
2023-01-11T15:42:48.721Z,17.17
2023-01-11T15:46:00.081Z,20.15
2023-01-11T15:48:38.629Z,16.85
2023-01-11T15:51:39.194Z,14.40
2023-01-11T15:54:31.228Z,24.10
2023-01-11T15:57:42.341Z,20.75
2023-01-11T16:00:28.919Z,13.68
2023-01-11T16:03:24.911Z,16.63
2023-01-11T16:06:15.696Z,19.27
2023-01-11T16:08:57.010Z,22.92
2023-01-11T16:11:26.414Z,17.42
2023-01-11T16:14:32.512Z,25.63
2023-01-11T16:16:59.683Z,24.02
2023-01-11T16:19:34.453Z,17.73
2023-01-11T16:22:05.534Z,25.45
2023-01-11T16:24:42.750Z,22.00
2023-01-11T16:27:21.723Z,18.58
2023-01-11T16:29:50.739Z,20.13
2023-01-11T16:32:21.762Z,17.90
2023-01-11T16:34:52.046Z,26.38
2023-01-11T16:37:37.546Z,17.13
2023-01-11T16:42:59.934Z,15.88
2023-01-11T16:45:41.635Z,37.03
2023-01-11T16:48:19.527Z,21.92
2023-01-11T16:51:07.381Z,22.40
2023-01-11T16:53:37.013Z,16.60
2023-01-11T16:56:07.621Z,21.17
2023-01-11T16:58:36.634Z,26.88
2023-01-11T17:01:05.298Z,23.83
2023-01-11T17:03:43.160Z,22.63
2023-01-11T17:06:16.038Z,19.63
2023-01-11T17:08:52.172Z,17.25
2023-01-11T17:11:34.521Z,24.63
2023-01-11T17:14:30.679Z,16.45
2023-01-11T17:17:02.590Z,25.05
2023-01-11T17:19:35.783Z,19.42
2023-01-11T17:22:09.708Z,14.75
2023-01-11T17:24:41.611Z,16.10
2023-01-11T17:27:19.059Z,21.95
2023-01-11T17:29:47.482Z,19.48
2023-01-11T17:32:20.324Z,20.33
2023-01-11T17:34:49.867Z,21.25
2023-01-11T17:37:18.251Z,17.75
2023-01-11T17:39:50.618Z,20.83
2023-01-11T17:42:36.308Z,20.70
2023-01-11T17:45:16.651Z,20.88
2023-01-11T17:47:46.987Z,21.33
2023-01-11T17:50:35.081Z,22.42
2023-01-11T17:53:24.279Z,24.90
2023-01-11T17:56:02.090Z,13.05
2023-01-11T17:58:37.301Z,21.60
2023-01-11T18:01:19.498Z,22.40
2023-01-11T18:04:04.787Z,16.35
2023-01-11T18:06:35.440Z,24.58
2023-01-11T18:09:07.131Z,25.90
2023-01-11T18:11:40.394Z,31.83
2023-01-11T18:14:17.689Z,16.58
2023-01-11T18:17:05.742Z,22.25
2023-01-11T18:19:41.386Z,26.45
2023-01-11T18:22:40.374Z,22.08
2023-01-11T18:25:19.834Z,16.38
2023-01-11T18:27:47.052Z,17.27
2023-01-11T18:30:32.191Z,17.00
2023-01-11T18:33:04.176Z,11.00
2023-01-11T18:35:31.099Z,11.27
2023-01-11T18:37:57.622Z,12.23
2023-01-11T18:40:24.181Z,16.67
2023-01-11T18:42:52.743Z,18.48
2023-01-11T18:45:20.211Z,13.70
2023-01-11T18:47:47.000Z,12.15
2023-01-11T18:50:14.914Z,22.98
2023-01-11T18:52:41.588Z,14.02
2023-01-11T18:55:11.507Z,15.13
2023-01-11T18:57:38.031Z,21.38
2023-01-11T19:00:05.381Z,14.43
2023-01-11T19:05:21.694Z,9.07
2023-01-11T19:07:49.640Z,11.43
2023-01-11T19:10:19.772Z,17.67
2023-01-11T19:12:47.209Z,15.15
2023-01-11T19:15:14.816Z,13.35
2023-01-11T19:17:41.745Z,13.05
2023-01-11T19:20:09.326Z,15.68
2023-01-11T19:22:37.164Z,17.83
2023-01-11T19:25:04.982Z,10.82
2023-01-11T19:27:31.589Z,16.08
2023-01-11T19:29:58.971Z,14.50
2023-01-11T19:32:25.778Z,15.10
2023-01-11T19:34:53.520Z,16.40
2023-01-11T19:37:20.750Z,15.40
2023-01-11T19:39:47.945Z,16.50
2023-01-11T19:42:14.546Z,23.50
2023-01-11T19:44:41.234Z,17.52
2023-01-11T19:47:13.023Z,17.13
2023-01-11T19:49:40.950Z,24.23
2023-01-11T19:52:12.943Z,16.25
2023-01-11T19:54:43.588Z,17.10
2023-01-11T19:57:14.431Z,11.50
2023-01-11T19:59:42.248Z,22.13
2023-01-11T20:02:14.771Z,21.65
2023-01-11T20:04:41.985Z,20.92
2023-01-11T20:07:10.535Z,10.85
2023-01-11T20:09:37.912Z,8.30
2023-01-11T20:12:09.261Z,11.50
2023-01-11T20:14:36.544Z,11.63
2023-01-11T20:17:03.391Z,14.77
2023-01-11T20:19:29.959Z,12.27
2023-01-11T20:21:56.661Z,6.13
2023-01-11T20:24:30.229Z,7.28
2023-01-11T20:26:59.330Z,12.15
2023-01-11T20:29:26.692Z,10.18
2023-01-11T20:31:53.361Z,7.63
2023-01-11T20:34:20.669Z,11.48
2023-01-11T20:36:48.072Z,6.50
2023-01-11T20:39:14.756Z,13.50
2023-01-11T20:41:47.128Z,9.20
2023-01-11T20:44:16.096Z,9.45
2023-01-11T20:46:45.183Z,9.73
2023-01-11T20:49:13.634Z,13.38
2023-01-11T20:51:40.812Z,12.95
2023-01-11T20:54:07.966Z,14.23
2023-01-11T20:56:34.950Z,13.02
2023-01-11T20:59:02.176Z,12.85
2023-01-11T21:01:29.701Z,7.32
2023-01-11T21:04:01.672Z,10.30
2023-01-11T21:06:29.966Z,12.70
2023-01-11T21:08:58.351Z,9.68
2023-01-11T21:11:25.363Z,9.27
2023-01-11T21:13:53.552Z,12.00
2023-01-11T21:16:22.649Z,14.10
2023-01-11T21:18:54.996Z,19.15
2023-01-11T21:21:22.226Z,9.80
2023-01-11T21:23:48.904Z,14.02
2023-01-11T21:26:18.318Z,11.27
2023-01-11T21:28:51.919Z,22.80
2023-01-11T21:31:21.126Z,19.55
2023-01-11T21:33:49.261Z,10.63
2023-01-11T21:36:20.295Z,12.48
2023-01-11T21:38:47.467Z,16.63
2023-01-11T21:41:39.879Z,19.27
2023-01-11T21:44:07.537Z,20.58
2023-01-11T21:46:34.479Z,14.68
2023-01-11T21:49:01.590Z,17.45
2023-01-11T21:51:29.872Z,15.05
2023-01-11T21:53:57.483Z,15.20
2023-01-11T21:56:24.550Z,15.15
2023-01-11T21:58:53.236Z,11.40
2023-01-11T22:01:23.479Z,11.10
2023-01-11T22:03:50.340Z,16.55
2023-01-11T22:06:17.586Z,16.27
2023-01-11T22:08:50.591Z,17.00
2023-01-11T22:11:18.274Z,17.38
2023-01-11T22:13:45.004Z,15.70
2023-01-11T22:16:17.563Z,14.13
2023-01-11T22:18:45.284Z,20.95
2023-01-11T22:21:17.090Z,13.55
2023-01-11T22:23:45.319Z,18.38
2023-01-11T22:26:15.004Z,20.40
2023-01-11T22:29:00.571Z,17.40
2023-01-11T22:31:28.543Z,18.30
2023-01-11T22:33:55.959Z,18.10
2023-01-11T22:36:23.952Z,17.52
2023-01-11T22:38:51.364Z,11.48
2023-01-11T22:41:19.456Z,18.33
2023-01-11T22:43:46.969Z,14.65
2023-01-11T22:46:16.607Z,19.30
2023-01-11T22:48:43.827Z,17.95
2023-01-11T22:51:11.944Z,12.10
2023-01-11T22:53:39.667Z,14.40
2023-01-11T22:56:08.425Z,23.88
2023-01-11T22:58:38.614Z,17.35
2023-01-11T23:01:16.127Z,24.30
2023-01-11T23:03:43.950Z,24.92
2023-01-11T23:06:11.315Z,14.68
2023-01-11T23:08:40.957Z,19.17
2023-01-11T23:11:14.824Z,17.98
2023-01-11T23:13:55.993Z,19.67
2023-01-11T23:16:23.034Z,20.40
2023-01-11T23:18:50.041Z,17.15
2023-01-11T23:21:17.098Z,20.08
2023-01-11T23:23:44.541Z,18.38
2023-01-11T23:26:12.215Z,20.08
2023-01-11T23:28:39.752Z,16.63
2023-01-11T23:31:18.215Z,14.43
2023-01-11T23:33:49.812Z,14.82
2023-01-11T23:36:18.616Z,29.40
2023-01-11T23:38:45.716Z,16.60
2023-01-11T23:41:33.735Z,11.80
2023-01-11T23:44:01.168Z,22.73
2023-01-11T23:46:46.691Z,39.35
2023-01-11T23:51:43.208Z,11.27
2023-01-11T23:54:11.158Z,12.73
2023-01-11T23:56:38.329Z,17.90
2023-01-11T23:59:06.330Z,20.17
